UAL80 KEWR-BGGH
Flight info
| Callsign | UAL80 |
|---|---|
| Flight time | 3h 22m |
| Altitude | 33000 |
| Route | MERIT DCT HFD DCT PUT DCT QUBIS/N0491F350 DCT YDP DCT MOATT/M084F350 DCT EMBOK DCT AMABI |
| Aircraft | B788/H-SADE3GHIJ1J2J4J5M1P2RWXYZ/LB1D1 |
Departure
| Time | 2026-04-20 12:37 |
|---|---|
| Airport | Newark Liberty International Airport (KEWR) |
Arrival
| Time | 2026-04-20 15:59 |
|---|---|
| Airport | Nuuk International Airport (BGGH) |
| Time | Latitude | Longitude | Altitude | Speed | Heading |
|---|---|---|---|---|---|
| 2026-04-20 12:06 | 40.69914 | -74.18061 | 32 ft | 0 kts | 137° |
| 2026-04-20 12:22 | 40.69931 | -74.18085 | 32 ft | 4 kts | 125° |
| 2026-04-20 12:22 | 40.69943 | -74.18116 | 32 ft | 4 kts | 107° |
| 2026-04-20 12:22 | 40.69946 | -74.18148 | 32 ft | 4 kts | 80° |
| 2026-04-20 12:23 | 40.69937 | -74.18175 | 32 ft | 4 kts | 41° |
| 2026-04-20 12:23 | 40.69926 | -74.18184 | 32 ft | 0 kts | 17° |
| 2026-04-20 12:24 | 40.69926 | -74.18183 | 32 ft | 0 kts | 17° |
| 2026-04-20 12:26 | 40.69927 | -74.18183 | 32 ft | 0 kts | 17° |
| 2026-04-20 12:27 | 40.69935 | -74.18180 | 32 ft | 3 kts | 17° |
| 2026-04-20 12:27 | 40.69970 | -74.18166 | 32 ft | 7 kts | 17° |
| 2026-04-20 12:28 | 40.70023 | -74.18143 | 32 ft | 9 kts | 18° |
| 2026-04-20 12:28 | 40.70091 | -74.18116 | 32 ft | 11 kts | 17° |
| 2026-04-20 12:28 | 40.70158 | -74.18077 | 32 ft | 8 kts | 57° |
| 2026-04-20 12:28 | 40.70167 | -74.17997 | 32 ft | 11 kts | 91° |
| 2026-04-20 12:29 | 40.70162 | -74.17884 | 32 ft | 14 kts | 94° |
| 2026-04-20 12:29 | 40.70154 | -74.17735 | 32 ft | 18 kts | 94° |
| 2026-04-20 12:29 | 40.70142 | -74.17558 | 32 ft | 18 kts | 95° |
| 2026-04-20 12:29 | 40.70132 | -74.17386 | 32 ft | 20 kts | 94° |
| 2026-04-20 12:30 | 40.70122 | -74.17242 | 32 ft | 15 kts | 96° |
| 2026-04-20 12:30 | 40.70109 | -74.17093 | 32 ft | 17 kts | 96° |
| 2026-04-20 12:30 | 40.70095 | -74.16926 | 32 ft | 19 kts | 95° |
| 2026-04-20 12:30 | 40.70089 | -74.16835 | 32 ft | 12 kts | 95° |
| 2026-04-20 12:31 | 40.70080 | -74.16688 | 32 ft | 15 kts | 95° |
| 2026-04-20 12:31 | 40.70074 | -74.16605 | 32 ft | 12 kts | 95° |
| 2026-04-20 12:31 | 40.70070 | -74.16552 | 32 ft | 0 kts | 94° |
| 2026-04-20 12:33 | 40.70070 | -74.16551 | 32 ft | 0 kts | 94° |
| 2026-04-20 12:34 | 40.70070 | -74.16545 | 32 ft | 3 kts | 94° |
| 2026-04-20 12:34 | 40.70067 | -74.16471 | 32 ft | 13 kts | 93° |
| 2026-04-20 12:35 | 40.70060 | -74.16347 | 32 ft | 11 kts | 95° |
| 2026-04-20 12:35 | 40.70058 | -74.16314 | 32 ft | 1 kts | 96° |
| 2026-04-20 12:35 | 40.70047 | -74.16303 | 32 ft | 3 kts | 173° |
| 2026-04-20 12:35 | 40.70031 | -74.16317 | 32 ft | 6 kts | 228° |
| 2026-04-20 12:36 | 40.69948 | -74.16402 | 32 ft | 26 kts | 209° |
| 2026-04-20 12:36 | 40.69482 | -74.16705 | 32 ft | 123 kts | 206° |
| 2026-04-20 12:36 | 40.68467 | -74.17347 | 130 ft | 195 kts | 206° |
| 2026-04-20 12:36 | 40.67074 | -74.18234 | 406 ft | 229 kts | 206° |
| 2026-04-20 12:37 | 40.65661 | -74.18834 | 619 ft | 210 kts | 183° |
| 2026-04-20 12:37 | 40.64217 | -74.18739 | 1503 ft | 200 kts | 177° |
| 2026-04-20 12:37 | 40.62829 | -74.18621 | 2191 ft | 206 kts | 178° |
| 2026-04-20 12:37 | 40.61403 | -74.18932 | 2374 ft | 209 kts | 205° |
| 2026-04-20 12:38 | 40.60087 | -74.19770 | 2537 ft | 214 kts | 208° |
| 2026-04-20 12:38 | 40.58730 | -74.20637 | 2537 ft | 216 kts | 207° |
| 2026-04-20 12:38 | 40.57395 | -74.21489 | 2520 ft | 217 kts | 207° |
| 2026-04-20 12:38 | 40.56015 | -74.22377 | 2511 ft | 218 kts | 207° |
| 2026-04-20 12:39 | 40.53304 | -74.24128 | 2517 ft | 218 kts | 207° |
| 2026-04-20 12:39 | 40.51972 | -74.25115 | 2493 ft | 218 kts | 220° |
| 2026-04-20 12:39 | 40.51161 | -74.26759 | 2479 ft | 216 kts | 253° |
| 2026-04-20 12:40 | 40.50811 | -74.28693 | 2552 ft | 225 kts | 258° |
| 2026-04-20 12:40 | 40.50454 | -74.30756 | 2532 ft | 235 kts | 257° |
| 2026-04-20 12:40 | 40.50161 | -74.32871 | 2497 ft | 240 kts | 267° |
| 2026-04-20 12:40 | 40.50181 | -74.35105 | 2526 ft | 242 kts | 272° |
| 2026-04-20 12:41 | 40.50479 | -74.37246 | 2510 ft | 244 kts | 287° |
| 2026-04-20 12:41 | 40.51021 | -74.39368 | 2525 ft | 245 kts | 289° |
| 2026-04-20 12:41 | 40.51576 | -74.41488 | 2508 ft | 245 kts | 289° |
| 2026-04-20 12:41 | 40.52128 | -74.43599 | 2505 ft | 245 kts | 289° |
| 2026-04-20 12:42 | 40.52683 | -74.45724 | 2504 ft | 245 kts | 289° |
| 2026-04-20 12:42 | 40.53245 | -74.47877 | 2494 ft | 246 kts | 289° |
| 2026-04-20 12:42 | 40.53817 | -74.50069 | 2745 ft | 268 kts | 289° |
| 2026-04-20 12:42 | 40.54418 | -74.52377 | 3900 ft | 261 kts | 289° |
| 2026-04-20 12:43 | 40.55013 | -74.54642 | 4612 ft | 257 kts | 289° |
| 2026-04-20 12:43 | 40.55586 | -74.56811 | 4822 ft | 253 kts | 289° |
| 2026-04-20 12:43 | 40.56163 | -74.58989 | 4949 ft | 250 kts | 289° |
| 2026-04-20 12:43 | 40.56735 | -74.61144 | 4961 ft | 249 kts | 289° |
| 2026-04-20 12:44 | 40.57301 | -74.63277 | 4968 ft | 247 kts | 289° |
| 2026-04-20 12:44 | 40.57876 | -74.65448 | 4977 ft | 247 kts | 289° |
| 2026-04-20 12:44 | 40.58430 | -74.67538 | 4988 ft | 246 kts | 289° |
| 2026-04-20 12:44 | 40.58992 | -74.69660 | 4992 ft | 246 kts | 289° |
| 2026-04-20 12:45 | 40.59555 | -74.71787 | 4992 ft | 246 kts | 289° |
| 2026-04-20 12:45 | 40.60117 | -74.73911 | 4997 ft | 245 kts | 289° |
| 2026-04-20 12:45 | 40.60682 | -74.76045 | 5182 ft | 251 kts | 289° |
| 2026-04-20 12:45 | 40.61254 | -74.78201 | 6244 ft | 244 kts | 289° |
| 2026-04-20 12:46 | 40.61819 | -74.80297 | 7273 ft | 244 kts | 289° |
| 2026-04-20 12:46 | 40.62406 | -74.82430 | 8025 ft | 253 kts | 289° |
| 2026-04-20 12:46 | 40.63024 | -74.84641 | 8821 ft | 259 kts | 289° |
| 2026-04-20 12:46 | 40.63655 | -74.86861 | 9750 ft | 258 kts | 289° |
| 2026-04-20 12:47 | 40.64297 | -74.89055 | 10620 ft | 261 kts | 289° |
| 2026-04-20 12:47 | 40.64990 | -74.91380 | 10947 ft | 283 kts | 289° |
| 2026-04-20 12:47 | 40.65743 | -74.93867 | 11218 ft | 304 kts | 291° |
| 2026-04-20 12:47 | 40.66957 | -74.96236 | 11787 ft | 320 kts | 309° |
| 2026-04-20 12:48 | 40.68667 | -74.98189 | 12446 ft | 330 kts | 316° |
| 2026-04-20 12:48 | 40.70517 | -75.00056 | 12924 ft | 341 kts | 317° |
| 2026-04-20 12:48 | 40.72433 | -75.01947 | 13563 ft | 346 kts | 318° |
| 2026-04-20 12:48 | 40.74538 | -75.03495 | 14492 ft | 351 kts | 332° |
| 2026-04-20 12:49 | 40.76951 | -75.04280 | 15150 ft | 364 kts | 345° |
| 2026-04-20 12:49 | 40.79508 | -75.04670 | 15604 ft | 376 kts | 347° |
| 2026-04-20 12:49 | 40.82113 | -75.04979 | 16564 ft | 365 kts | 347° |
| 2026-04-20 12:49 | 40.84589 | -75.05222 | 17720 ft | 353 kts | 347° |
| 2026-04-20 12:50 | 40.87020 | -75.05418 | 18575 ft | 348 kts | 348° |
| 2026-04-20 12:50 | 40.89458 | -75.05602 | 18964 ft | 357 kts | 348° |
| 2026-04-20 12:50 | 40.91964 | -75.05800 | 19343 ft | 364 kts | 348° |
| 2026-04-20 12:50 | 40.94512 | -75.06003 | 19912 ft | 366 kts | 348° |
| 2026-04-20 12:51 | 40.97043 | -75.06158 | 20501 ft | 370 kts | 354° |
| 2026-04-20 12:51 | 40.99572 | -75.05281 | 21336 ft | 383 kts | 20° |
| 2026-04-20 12:51 | 41.01706 | -75.03095 | 21940 ft | 397 kts | 45° |
| 2026-04-20 12:51 | 41.03125 | -74.99889 | 22219 ft | 412 kts | 70° |
| 2026-04-20 12:52 | 41.03696 | -74.96132 | 22441 ft | 421 kts | 85° |
| 2026-04-20 12:52 | 41.03993 | -74.92236 | 22602 ft | 432 kts | 87° |
| 2026-04-20 12:52 | 41.04256 | -74.88265 | 22951 ft | 437 kts | 87° |
| 2026-04-20 12:52 | 41.04524 | -74.84249 | 23472 ft | 437 kts | 87° |
| 2026-04-20 12:53 | 41.04827 | -74.80237 | 23926 ft | 440 kts | 83° |
| 2026-04-20 12:53 | 41.05447 | -74.76259 | 24282 ft | 446 kts | 77° |
| 2026-04-20 12:53 | 41.06293 | -74.72236 | 24574 ft | 453 kts | 74° |
| 2026-04-20 12:53 | 41.07187 | -74.68218 | 25000 ft | 455 kts | 74° |
| 2026-04-20 12:54 | 41.08051 | -74.64199 | 25459 ft | 455 kts | 75° |
| 2026-04-20 12:54 | 41.08892 | -74.60149 | 25789 ft | 460 kts | 76° |
| 2026-04-20 12:54 | 41.09738 | -74.56033 | 26081 ft | 464 kts | 76° |
| 2026-04-20 12:54 | 41.10584 | -74.51923 | 26445 ft | 467 kts | 76° |
| 2026-04-20 12:55 | 41.11454 | -74.47710 | 26830 ft | 468 kts | 76° |
| 2026-04-20 12:55 | 41.12304 | -74.43590 | 27164 ft | 471 kts | 76° |
| 2026-04-20 12:55 | 41.13178 | -74.39342 | 27460 ft | 475 kts | 76° |
| 2026-04-20 12:55 | 41.14049 | -74.35098 | 27793 ft | 477 kts | 76° |
| 2026-04-20 12:56 | 41.14923 | -74.30829 | 28143 ft | 479 kts | 76° |
| 2026-04-20 12:56 | 41.15786 | -74.26606 | 28440 ft | 482 kts | 76° |
| 2026-04-20 12:56 | 41.16666 | -74.22285 | 28615 ft | 489 kts | 76° |
| 2026-04-20 12:56 | 41.17580 | -74.17788 | 28269 ft | 509 kts | 76° |
| 2026-04-20 12:57 | 41.18515 | -74.13185 | 28243 ft | 520 kts | 76° |
| 2026-04-20 12:57 | 41.20421 | -74.03777 | 28658 ft | 531 kts | 76° |
| 2026-04-20 12:57 | 41.21363 | -73.99110 | 29081 ft | 531 kts | 76° |
| 2026-04-20 12:58 | 41.22334 | -73.94286 | 29306 ft | 537 kts | 77° |
| 2026-04-20 12:58 | 41.23289 | -73.89521 | 29547 ft | 542 kts | 77° |
| 2026-04-20 12:58 | 41.24257 | -73.84682 | 29953 ft | 543 kts | 77° |
| 2026-04-20 12:58 | 41.25241 | -73.79759 | 30352 ft | 545 kts | 77° |
| 2026-04-20 12:59 | 41.26200 | -73.74950 | 30716 ft | 547 kts | 77° |
| 2026-04-20 12:59 | 41.27177 | -73.70032 | 31108 ft | 550 kts | 77° |
| 2026-04-20 12:59 | 41.28153 | -73.65114 | 31531 ft | 552 kts | 78° |
| 2026-04-20 12:59 | 41.29126 | -73.60192 | 31980 ft | 555 kts | 78° |
| 2026-04-20 13:00 | 41.30114 | -73.55186 | 32424 ft | 558 kts | 78° |
| 2026-04-20 13:00 | 41.31098 | -73.50187 | 32868 ft | 559 kts | 78° |
| 2026-04-20 13:00 | 41.32083 | -73.45170 | 33109 ft | 561 kts | 78° |
| 2026-04-20 13:01 | 41.34045 | -73.35145 | 33212 ft | 563 kts | 78° |
| 2026-04-20 13:01 | 41.36012 | -73.25039 | 33219 ft | 564 kts | 78° |
| 2026-04-20 13:02 | 41.38164 | -73.15021 | 33247 ft | 564 kts | 72° |
| 2026-04-20 13:02 | 41.41579 | -73.05576 | 33225 ft | 566 kts | 59° |
| 2026-04-20 13:03 | 41.45769 | -72.96719 | 33195 ft | 569 kts | 60° |
| 2026-04-20 13:03 | 41.49760 | -72.87603 | 33215 ft | 571 kts | 62° |
| 2026-04-20 13:04 | 41.53793 | -72.78353 | 33229 ft | 572 kts | 62° |
| 2026-04-20 13:04 | 41.57814 | -72.69204 | 33215 ft | 573 kts | 62° |
| 2026-04-20 13:05 | 41.61834 | -72.59983 | 33221 ft | 574 kts | 62° |
| 2026-04-20 13:05 | 41.65869 | -72.50830 | 33230 ft | 570 kts | 62° |
| 2026-04-20 13:06 | 41.69973 | -72.41755 | 33209 ft | 570 kts | 61° |
| 2026-04-20 13:06 | 41.74095 | -72.32597 | 33211 ft | 577 kts | 62° |
| 2026-04-20 13:07 | 41.78222 | -72.23379 | 33215 ft | 584 kts | 62° |
| 2026-04-20 13:07 | 41.82414 | -72.14005 | 33209 ft | 585 kts | 62° |
| 2026-04-20 13:08 | 41.86596 | -72.04613 | 33201 ft | 585 kts | 62° |
| 2026-04-20 13:08 | 41.90760 | -71.95234 | 33214 ft | 585 kts | 62° |
| 2026-04-20 13:09 | 41.95716 | -71.86740 | 33194 ft | 583 kts | 42° |
| 2026-04-20 13:09 | 42.02150 | -71.79966 | 33184 ft | 585 kts | 31° |
| 2026-04-20 13:10 | 42.09428 | -71.75246 | 33198 ft | 585 kts | 20° |
| 2026-04-20 13:10 | 42.16822 | -71.70628 | 33176 ft | 588 kts | 25° |
| 2026-04-20 13:11 | 42.22933 | -71.66448 | 33165 ft | 590 kts | 25° |
| 2026-04-20 13:11 | 42.31522 | -71.60761 | 33182 ft | 591 kts | 24° |
| 2026-04-20 13:12 | 42.38915 | -71.55847 | 33183 ft | 592 kts | 25° |
| 2026-04-20 13:12 | 42.45103 | -71.51707 | 33183 ft | 593 kts | 25° |
| 2026-04-20 13:13 | 42.52495 | -71.46761 | 33196 ft | 594 kts | 25° |
| 2026-04-20 13:13 | 42.59907 | -71.41789 | 33186 ft | 595 kts | 25° |
| 2026-04-20 13:14 | 42.67333 | -71.36790 | 33195 ft | 595 kts | 25° |
| 2026-04-20 13:14 | 42.74704 | -71.31818 | 33198 ft | 596 kts | 25° |
| 2026-04-20 13:15 | 42.82188 | -71.26757 | 33183 ft | 597 kts | 25° |
| 2026-04-20 13:15 | 42.89577 | -71.21745 | 33184 ft | 598 kts | 25° |
| 2026-04-20 13:16 | 42.97078 | -71.16642 | 33178 ft | 598 kts | 25° |
| 2026-04-20 13:16 | 43.04513 | -71.11573 | 33165 ft | 599 kts | 25° |
| 2026-04-20 13:17 | 43.11982 | -71.06465 | 33165 ft | 600 kts | 25° |
| 2026-04-20 13:17 | 43.19462 | -71.01336 | 33152 ft | 600 kts | 25° |
| 2026-04-20 13:18 | 43.26888 | -70.96230 | 33149 ft | 600 kts | 25° |
| 2026-04-20 13:18 | 43.34409 | -70.91043 | 33157 ft | 601 kts | 25° |
| 2026-04-20 13:19 | 43.41827 | -70.85916 | 33147 ft | 602 kts | 26° |
| 2026-04-20 13:19 | 43.49372 | -70.80684 | 33160 ft | 603 kts | 26° |
| 2026-04-20 13:20 | 43.56851 | -70.75484 | 33155 ft | 603 kts | 26° |
| 2026-04-20 13:20 | 43.64360 | -70.70248 | 33143 ft | 604 kts | 26° |
| 2026-04-20 13:21 | 43.71868 | -70.64999 | 33143 ft | 605 kts | 26° |
| 2026-04-20 13:21 | 43.79345 | -70.59755 | 33129 ft | 606 kts | 26° |
| 2026-04-20 13:22 | 43.86876 | -70.54460 | 33134 ft | 608 kts | 26° |
| 2026-04-20 13:22 | 43.94470 | -70.49104 | 33129 ft | 609 kts | 26° |
| 2026-04-20 13:23 | 44.01980 | -70.43793 | 33117 ft | 610 kts | 26° |
| 2026-04-20 13:23 | 44.09541 | -70.38430 | 33124 ft | 610 kts | 26° |
| 2026-04-20 13:24 | 44.17109 | -70.33047 | 33118 ft | 611 kts | 26° |
| 2026-04-20 13:24 | 44.24713 | -70.27625 | 33115 ft | 611 kts | 26° |
| 2026-04-20 13:25 | 44.32277 | -70.22210 | 33126 ft | 611 kts | 26° |
| 2026-04-20 13:25 | 44.39825 | -70.16796 | 33107 ft | 611 kts | 26° |
| 2026-04-20 13:26 | 44.47392 | -70.11350 | 33094 ft | 610 kts | 27° |
| 2026-04-20 13:26 | 44.54925 | -70.05911 | 33101 ft | 609 kts | 27° |
| 2026-04-20 13:27 | 44.62446 | -70.00468 | 33112 ft | 608 kts | 27° |
| 2026-04-20 13:27 | 44.69974 | -69.95004 | 33090 ft | 611 kts | 27° |
| 2026-04-20 13:28 | 44.77546 | -69.89489 | 33067 ft | 612 kts | 27° |
| 2026-04-20 13:28 | 44.85065 | -69.83996 | 33071 ft | 613 kts | 27° |
| 2026-04-20 13:29 | 44.92694 | -69.78410 | 33071 ft | 613 kts | 27° |
| 2026-04-20 13:29 | 45.00203 | -69.72894 | 33059 ft | 613 kts | 27° |
| 2026-04-20 13:30 | 45.07763 | -69.67319 | 33059 ft | 612 kts | 27° |
| 2026-04-20 13:30 | 45.15303 | -69.61748 | 33045 ft | 612 kts | 27° |
| 2026-04-20 13:31 | 45.22886 | -69.56128 | 33032 ft | 611 kts | 27° |
| 2026-04-20 13:31 | 45.30369 | -69.50562 | 33032 ft | 610 kts | 27° |
| 2026-04-20 13:32 | 45.37883 | -69.44959 | 33028 ft | 610 kts | 27° |
| 2026-04-20 13:32 | 45.45413 | -69.39325 | 33018 ft | 609 kts | 27° |
| 2026-04-20 13:33 | 45.52895 | -69.33711 | 33032 ft | 609 kts | 28° |
| 2026-04-20 13:33 | 45.60388 | -69.28072 | 33040 ft | 609 kts | 28° |
| 2026-04-20 13:34 | 45.67907 | -69.22395 | 33049 ft | 610 kts | 28° |
| 2026-04-20 13:34 | 45.75403 | -69.16719 | 33062 ft | 611 kts | 28° |
| 2026-04-20 13:35 | 45.82917 | -69.11012 | 33069 ft | 612 kts | 28° |
| 2026-04-20 13:35 | 45.90430 | -69.05288 | 33069 ft | 613 kts | 28° |
| 2026-04-20 13:36 | 45.97992 | -68.99508 | 33079 ft | 615 kts | 28° |
| 2026-04-20 13:36 | 46.05512 | -68.93744 | 33071 ft | 615 kts | 28° |
| 2026-04-20 13:37 | 46.13066 | -68.87933 | 33078 ft | 615 kts | 28° |
| 2026-04-20 13:37 | 46.20609 | -68.82114 | 33075 ft | 616 kts | 28° |
| 2026-04-20 13:38 | 46.28185 | -68.76252 | 33079 ft | 617 kts | 29° |
| 2026-04-20 13:38 | 46.35752 | -68.70376 | 33083 ft | 618 kts | 29° |
| 2026-04-20 13:39 | 46.43342 | -68.64466 | 33068 ft | 619 kts | 29° |
| 2026-04-20 13:39 | 46.50914 | -68.58549 | 33076 ft | 620 kts | 29° |
| 2026-04-20 13:40 | 46.58531 | -68.52579 | 33074 ft | 621 kts | 29° |
| 2026-04-20 13:40 | 46.66133 | -68.46602 | 33067 ft | 621 kts | 30° |
| 2026-04-20 13:41 | 46.73702 | -68.40631 | 33071 ft | 621 kts | 30° |
| 2026-04-20 13:41 | 46.81264 | -68.34647 | 33057 ft | 620 kts | 30° |
| 2026-04-20 13:42 | 46.88877 | -68.28603 | 33061 ft | 620 kts | 30° |
| 2026-04-20 13:42 | 47.00232 | -68.19550 | 33043 ft | 619 kts | 30° |
| 2026-04-20 13:43 | 47.07786 | -68.13505 | 33050 ft | 618 kts | 30° |
| 2026-04-20 13:43 | 47.15325 | -68.07449 | 33047 ft | 617 kts | 30° |
| 2026-04-20 13:44 | 47.22833 | -68.01401 | 33036 ft | 616 kts | 30° |
| 2026-04-20 13:44 | 47.30364 | -67.95314 | 33053 ft | 618 kts | 30° |
| 2026-04-20 13:45 | 47.37899 | -67.89203 | 33033 ft | 620 kts | 30° |
| 2026-04-20 13:45 | 47.45477 | -67.83038 | 33044 ft | 620 kts | 30° |
| 2026-04-20 13:46 | 47.53085 | -67.77011 | 33053 ft | 620 kts | 27° |
| 2026-04-20 13:46 | 47.61042 | -67.72189 | 33036 ft | 618 kts | 18° |
| 2026-04-20 13:47 | 47.69188 | -67.68035 | 33041 ft | 619 kts | 20° |
| 2026-04-20 13:47 | 47.77202 | -67.63562 | 33044 ft | 619 kts | 20° |
| 2026-04-20 13:48 | 47.85325 | -67.59073 | 33040 ft | 619 kts | 20° |
| 2026-04-20 13:48 | 47.92044 | -67.55381 | 33046 ft | 619 kts | 20° |
| 2026-04-20 13:49 | 48.01493 | -67.50135 | 33050 ft | 620 kts | 20° |
| 2026-04-20 13:49 | 48.09537 | -67.45662 | 33044 ft | 619 kts | 20° |
| 2026-04-20 13:50 | 48.17653 | -67.41132 | 33059 ft | 620 kts | 20° |
| 2026-04-20 13:50 | 48.25710 | -67.36618 | 33049 ft | 621 kts | 20° |
| 2026-04-20 13:51 | 48.33785 | -67.32081 | 33053 ft | 621 kts | 20° |
| 2026-04-20 13:51 | 48.41917 | -67.27495 | 33081 ft | 626 kts | 20° |
| 2026-04-20 13:52 | 48.44655 | -67.25947 | 33274 ft | 628 kts | 20° |
| 2026-04-20 13:52 | 48.48752 | -67.23628 | 33939 ft | 623 kts | 20° |
| 2026-04-20 13:52 | 48.52793 | -67.21337 | 34614 ft | 619 kts | 20° |
| 2026-04-20 13:52 | 48.56806 | -67.19059 | 34892 ft | 618 kts | 20° |
| 2026-04-20 13:53 | 48.60840 | -67.16765 | 35035 ft | 617 kts | 20° |
| 2026-04-20 13:53 | 48.64846 | -67.14481 | 35047 ft | 616 kts | 20° |
| 2026-04-20 13:53 | 48.72872 | -67.09895 | 35058 ft | 615 kts | 20° |
| 2026-04-20 13:54 | 48.80864 | -67.05313 | 35055 ft | 614 kts | 20° |
| 2026-04-20 13:54 | 48.88859 | -67.00714 | 35044 ft | 614 kts | 20° |
| 2026-04-20 13:55 | 48.96833 | -66.96112 | 35054 ft | 615 kts | 21° |
| 2026-04-20 13:55 | 49.04824 | -66.91482 | 35041 ft | 615 kts | 21° |
| 2026-04-20 13:56 | 49.12817 | -66.86837 | 35034 ft | 615 kts | 21° |
| 2026-04-20 13:56 | 49.20833 | -66.82162 | 35020 ft | 615 kts | 21° |
| 2026-04-20 13:57 | 49.28824 | -66.77484 | 34999 ft | 615 kts | 21° |
| 2026-04-20 13:57 | 49.36814 | -66.72793 | 34985 ft | 616 kts | 21° |
| 2026-04-20 13:58 | 49.44831 | -66.68068 | 34977 ft | 616 kts | 21° |
| 2026-04-20 13:58 | 49.52824 | -66.63340 | 34972 ft | 616 kts | 21° |
| 2026-04-20 13:59 | 49.60834 | -66.58586 | 34958 ft | 617 kts | 21° |
| 2026-04-20 13:59 | 49.68869 | -66.53802 | 34953 ft | 618 kts | 21° |
| 2026-04-20 14:00 | 49.76884 | -66.49011 | 34948 ft | 619 kts | 21° |
| 2026-04-20 14:00 | 49.84878 | -66.44215 | 34932 ft | 620 kts | 21° |
| 2026-04-20 14:01 | 49.92965 | -66.39347 | 34933 ft | 621 kts | 21° |
| 2026-04-20 14:01 | 50.01028 | -66.34476 | 34937 ft | 621 kts | 21° |
| 2026-04-20 14:02 | 50.09083 | -66.29590 | 34924 ft | 621 kts | 22° |
| 2026-04-20 14:02 | 50.17070 | -66.24731 | 34936 ft | 621 kts | 22° |
| 2026-04-20 14:03 | 50.25147 | -66.19799 | 34928 ft | 622 kts | 22° |
| 2026-04-20 14:03 | 50.33186 | -66.14871 | 34926 ft | 621 kts | 22° |
| 2026-04-20 14:04 | 50.41244 | -66.09916 | 34936 ft | 621 kts | 22° |
| 2026-04-20 14:04 | 50.49275 | -66.04954 | 34922 ft | 620 kts | 22° |
| 2026-04-20 14:05 | 50.57316 | -65.99969 | 34921 ft | 620 kts | 22° |
| 2026-04-20 14:05 | 50.65317 | -65.94992 | 34921 ft | 621 kts | 22° |
| 2026-04-20 14:06 | 50.73379 | -65.89963 | 34897 ft | 622 kts | 22° |
| 2026-04-20 14:06 | 50.81400 | -65.84935 | 34883 ft | 622 kts | 22° |
| 2026-04-20 14:07 | 50.89432 | -65.79882 | 34871 ft | 621 kts | 22° |
| 2026-04-20 14:07 | 50.97473 | -65.74807 | 34867 ft | 621 kts | 22° |
| 2026-04-20 14:08 | 51.05491 | -65.69726 | 34870 ft | 621 kts | 22° |
| 2026-04-20 14:08 | 51.13516 | -65.64623 | 34854 ft | 620 kts | 22° |
| 2026-04-20 14:09 | 51.21539 | -65.59499 | 34840 ft | 620 kts | 22° |
| 2026-04-20 14:09 | 51.29514 | -65.54388 | 34835 ft | 620 kts | 22° |
| 2026-04-20 14:10 | 51.37541 | -65.49225 | 34827 ft | 619 kts | 22° |
| 2026-04-20 14:10 | 51.45533 | -65.44064 | 34818 ft | 619 kts | 22° |
| 2026-04-20 14:11 | 51.53519 | -65.38887 | 34817 ft | 619 kts | 23° |
| 2026-04-20 14:11 | 51.61497 | -65.33699 | 34805 ft | 619 kts | 23° |
| 2026-04-20 14:12 | 51.69462 | -65.28496 | 34800 ft | 619 kts | 23° |
| 2026-04-20 14:12 | 51.77465 | -65.23249 | 34800 ft | 619 kts | 23° |
| 2026-04-20 14:13 | 51.85444 | -65.18001 | 34787 ft | 620 kts | 23° |
| 2026-04-20 14:13 | 51.93427 | -65.12726 | 34787 ft | 621 kts | 23° |
| 2026-04-20 14:14 | 52.01426 | -65.07422 | 34785 ft | 621 kts | 23° |
| 2026-04-20 14:14 | 52.09434 | -65.02088 | 34772 ft | 621 kts | 23° |
| 2026-04-20 14:15 | 52.17440 | -64.96739 | 34776 ft | 622 kts | 23° |
| 2026-04-20 14:15 | 52.25439 | -64.91372 | 34765 ft | 622 kts | 23° |
| 2026-04-20 14:16 | 52.33442 | -64.85980 | 34761 ft | 623 kts | 23° |
| 2026-04-20 14:16 | 52.41489 | -64.80540 | 34764 ft | 624 kts | 23° |
| 2026-04-20 14:17 | 52.49518 | -64.75088 | 34749 ft | 625 kts | 24° |
| 2026-04-20 14:17 | 52.57537 | -64.69623 | 34748 ft | 626 kts | 24° |
| 2026-04-20 14:18 | 52.65588 | -64.64113 | 34747 ft | 626 kts | 24° |
| 2026-04-20 14:18 | 52.73616 | -64.58596 | 34732 ft | 626 kts | 24° |
| 2026-04-20 14:19 | 52.81663 | -64.53047 | 34734 ft | 627 kts | 24° |
| 2026-04-20 14:19 | 52.89725 | -64.47461 | 34729 ft | 627 kts | 24° |
| 2026-04-20 14:20 | 52.97754 | -64.41878 | 34715 ft | 627 kts | 24° |
| 2026-04-20 14:20 | 53.05789 | -64.36267 | 34704 ft | 627 kts | 24° |
| 2026-04-20 14:21 | 53.13847 | -64.30618 | 34713 ft | 627 kts | 24° |
| 2026-04-20 14:21 | 53.21883 | -64.24960 | 34705 ft | 627 kts | 24° |
| 2026-04-20 14:22 | 53.29919 | -64.19282 | 34698 ft | 628 kts | 25° |
| 2026-04-20 14:22 | 53.37954 | -64.13578 | 34709 ft | 628 kts | 25° |
| 2026-04-20 14:23 | 53.45987 | -64.07854 | 34700 ft | 628 kts | 25° |
| 2026-04-20 14:23 | 53.54050 | -64.02084 | 34715 ft | 628 kts | 25° |
| 2026-04-20 14:24 | 53.62044 | -63.96338 | 34711 ft | 629 kts | 25° |
| 2026-04-20 14:24 | 53.70085 | -63.90536 | 34705 ft | 629 kts | 25° |
| 2026-04-20 14:25 | 53.78179 | -63.84672 | 34717 ft | 629 kts | 25° |
| 2026-04-20 14:25 | 53.86176 | -63.78852 | 34702 ft | 629 kts | 25° |
| 2026-04-20 14:26 | 53.94278 | -63.72932 | 34702 ft | 629 kts | 25° |
| 2026-04-20 14:26 | 54.02309 | -63.67039 | 34706 ft | 629 kts | 25° |
| 2026-04-20 14:27 | 54.10305 | -63.61147 | 34691 ft | 629 kts | 25° |
| 2026-04-20 14:27 | 54.18337 | -63.55204 | 34694 ft | 629 kts | 25° |
| 2026-04-20 14:28 | 54.26413 | -63.49202 | 34691 ft | 629 kts | 25° |
| 2026-04-20 14:28 | 54.34384 | -63.43251 | 34679 ft | 629 kts | 26° |
| 2026-04-20 14:29 | 54.42404 | -63.37239 | 34685 ft | 628 kts | 25° |
| 2026-04-20 14:29 | 54.50406 | -63.31216 | 34677 ft | 628 kts | 25° |
| 2026-04-20 14:30 | 54.58416 | -63.25163 | 34668 ft | 628 kts | 25° |
| 2026-04-20 14:30 | 54.66407 | -63.19093 | 34675 ft | 627 kts | 25° |
| 2026-04-20 14:31 | 54.74378 | -63.13016 | 34662 ft | 627 kts | 26° |
| 2026-04-20 14:31 | 54.82378 | -63.06889 | 34659 ft | 627 kts | 26° |
| 2026-04-20 14:32 | 54.90336 | -63.00768 | 34659 ft | 627 kts | 26° |
| 2026-04-20 14:32 | 54.96980 | -62.95637 | 34645 ft | 627 kts | 25° |
| 2026-04-20 14:33 | 55.04984 | -62.89431 | 34643 ft | 626 kts | 26° |
| 2026-04-20 14:33 | 55.12945 | -62.83231 | 34646 ft | 626 kts | 26° |
| 2026-04-20 14:34 | 55.20862 | -62.77039 | 34632 ft | 626 kts | 26° |
| 2026-04-20 14:34 | 55.28800 | -62.70803 | 34636 ft | 626 kts | 25° |
| 2026-04-20 14:35 | 55.36747 | -62.64532 | 34635 ft | 625 kts | 26° |
| 2026-04-20 14:35 | 55.44684 | -62.58241 | 34621 ft | 625 kts | 25° |
| 2026-04-20 14:36 | 55.52595 | -62.51945 | 34621 ft | 625 kts | 25° |
| 2026-04-20 14:36 | 55.60515 | -62.45611 | 34602 ft | 625 kts | 25° |
| 2026-04-20 14:37 | 55.68443 | -62.39242 | 34598 ft | 625 kts | 25° |
| 2026-04-20 14:37 | 55.76354 | -62.32861 | 34609 ft | 624 kts | 25° |
| 2026-04-20 14:38 | 55.84231 | -62.26478 | 34596 ft | 624 kts | 25° |
| 2026-04-20 14:38 | 55.92126 | -62.20049 | 34598 ft | 623 kts | 25° |
| 2026-04-20 14:39 | 55.99984 | -62.13626 | 34598 ft | 623 kts | 25° |
| 2026-04-20 14:39 | 56.07894 | -62.07128 | 34589 ft | 623 kts | 25° |
| 2026-04-20 14:40 | 56.15776 | -62.00625 | 34603 ft | 623 kts | 25° |
| 2026-04-20 14:40 | 56.23637 | -61.94109 | 34594 ft | 623 kts | 26° |
| 2026-04-20 14:41 | 56.31490 | -61.87569 | 34597 ft | 622 kts | 26° |
| 2026-04-20 14:41 | 56.39344 | -61.81001 | 34606 ft | 622 kts | 26° |
| 2026-04-20 14:42 | 56.47176 | -61.74419 | 34593 ft | 621 kts | 26° |
| 2026-04-20 14:42 | 56.54969 | -61.67575 | 34609 ft | 622 kts | 31° |
| 2026-04-20 14:43 | 56.62315 | -61.59218 | 34593 ft | 621 kts | 36° |
| 2026-04-20 14:43 | 56.69549 | -61.50782 | 34603 ft | 619 kts | 34° |
| 2026-04-20 14:44 | 56.76878 | -61.42548 | 34601 ft | 618 kts | 34° |
| 2026-04-20 14:44 | 56.84148 | -61.34189 | 34591 ft | 617 kts | 34° |
| 2026-04-20 14:45 | 56.91358 | -61.25879 | 34601 ft | 616 kts | 34° |
| 2026-04-20 14:45 | 56.98637 | -61.17472 | 34589 ft | 615 kts | 34° |
| 2026-04-20 14:46 | 57.05880 | -61.09047 | 34584 ft | 615 kts | 34° |
| 2026-04-20 14:46 | 57.13043 | -61.00685 | 34589 ft | 614 kts | 34° |
| 2026-04-20 14:47 | 57.20309 | -60.92164 | 34576 ft | 614 kts | 35° |
| 2026-04-20 14:48 | 57.31027 | -60.79513 | 34581 ft | 612 kts | 35° |
| 2026-04-20 14:48 | 57.38212 | -60.70989 | 34572 ft | 612 kts | 35° |
| 2026-04-20 14:49 | 57.45370 | -60.62450 | 34563 ft | 611 kts | 35° |
| 2026-04-20 14:49 | 57.52513 | -60.53893 | 34573 ft | 610 kts | 35° |
| 2026-04-20 14:50 | 57.59622 | -60.45334 | 34559 ft | 610 kts | 35° |
| 2026-04-20 14:50 | 57.66750 | -60.36712 | 34558 ft | 609 kts | 35° |
| 2026-04-20 14:51 | 57.73848 | -60.28086 | 34564 ft | 609 kts | 35° |
| 2026-04-20 14:51 | 57.80947 | -60.19418 | 34551 ft | 608 kts | 35° |
| 2026-04-20 14:52 | 57.88029 | -60.10729 | 34558 ft | 608 kts | 35° |
| 2026-04-20 14:52 | 57.95082 | -60.02034 | 34557 ft | 607 kts | 35° |
| 2026-04-20 14:53 | 58.02487 | -59.94412 | 34567 ft | 605 kts | 22° |
| 2026-04-20 14:53 | 58.10506 | -59.89912 | 34541 ft | 602 kts | 5° |
| 2026-04-20 14:54 | 58.18839 | -59.88161 | 34558 ft | 603 kts | 4° |
| 2026-04-20 14:54 | 58.27133 | -59.85602 | 34541 ft | 604 kts | 7° |
| 2026-04-20 14:55 | 58.35421 | -59.82983 | 34552 ft | 604 kts | 6° |
| 2026-04-20 14:55 | 58.43730 | -59.80507 | 34582 ft | 604 kts | 6° |
| 2026-04-20 14:56 | 58.52029 | -59.77950 | 34620 ft | 604 kts | 6° |
| 2026-04-20 14:56 | 58.60332 | -59.75386 | 34642 ft | 603 kts | 6° |
| 2026-04-20 14:57 | 58.68561 | -59.72843 | 34639 ft | 603 kts | 6° |
| 2026-04-20 14:57 | 58.76828 | -59.70269 | 34600 ft | 602 kts | 6° |
| 2026-04-20 14:58 | 58.85100 | -59.67684 | 34577 ft | 602 kts | 6° |
| 2026-04-20 14:58 | 58.93435 | -59.65065 | 34559 ft | 602 kts | 6° |
| 2026-04-20 14:59 | 59.01625 | -59.62479 | 34541 ft | 602 kts | 6° |
| 2026-04-20 14:59 | 59.09915 | -59.59850 | 34540 ft | 602 kts | 6° |
| 2026-04-20 15:00 | 59.18173 | -59.57217 | 34551 ft | 603 kts | 6° |
| 2026-04-20 15:00 | 59.26446 | -59.54567 | 34543 ft | 603 kts | 6° |
| 2026-04-20 15:01 | 59.34746 | -59.51894 | 34549 ft | 603 kts | 6° |
| 2026-04-20 15:01 | 59.43032 | -59.49214 | 34558 ft | 604 kts | 6° |
| 2026-04-20 15:02 | 59.51315 | -59.46522 | 34548 ft | 604 kts | 6° |
| 2026-04-20 15:02 | 59.59623 | -59.43806 | 34560 ft | 604 kts | 6° |
| 2026-04-20 15:03 | 59.67896 | -59.41089 | 34565 ft | 605 kts | 6° |
| 2026-04-20 15:03 | 59.76220 | -59.38343 | 34558 ft | 605 kts | 6° |
| 2026-04-20 15:04 | 59.84497 | -59.35596 | 34572 ft | 605 kts | 6° |
| 2026-04-20 15:04 | 59.92815 | -59.32824 | 34573 ft | 605 kts | 6° |
| 2026-04-20 15:05 | 60.01095 | -59.30047 | 34572 ft | 605 kts | 7° |
| 2026-04-20 15:05 | 60.09409 | -59.27250 | 34585 ft | 605 kts | 7° |
| 2026-04-20 15:06 | 60.17685 | -59.24447 | 34586 ft | 605 kts | 7° |
| 2026-04-20 15:06 | 60.25961 | -59.21630 | 34587 ft | 605 kts | 7° |
| 2026-04-20 15:07 | 60.34274 | -59.18788 | 34599 ft | 604 kts | 7° |
| 2026-04-20 15:07 | 60.42600 | -59.15925 | 34604 ft | 605 kts | 8° |
| 2026-04-20 15:08 | 60.50931 | -59.13047 | 34607 ft | 607 kts | 8° |
| 2026-04-20 15:08 | 60.59196 | -59.10175 | 34620 ft | 608 kts | 8° |
| 2026-04-20 15:09 | 60.67551 | -59.07257 | 34621 ft | 609 kts | 8° |
| 2026-04-20 15:09 | 60.75952 | -59.04310 | 34625 ft | 609 kts | 8° |
| 2026-04-20 15:10 | 60.84251 | -59.01379 | 34638 ft | 609 kts | 8° |
| 2026-04-20 15:10 | 60.91195 | -58.98914 | 34636 ft | 609 kts | 8° |
| 2026-04-20 15:11 | 61.00947 | -58.95442 | 34645 ft | 609 kts | 8° |
| 2026-04-20 15:11 | 61.09299 | -58.92446 | 34655 ft | 609 kts | 8° |
| 2026-04-20 15:12 | 61.17666 | -58.89428 | 34653 ft | 609 kts | 8° |
| 2026-04-20 15:12 | 61.26013 | -58.86402 | 34665 ft | 609 kts | 8° |
| 2026-04-20 15:13 | 61.32946 | -58.83878 | 34672 ft | 609 kts | 8° |
| 2026-04-20 15:13 | 61.42721 | -58.80299 | 34670 ft | 610 kts | 8° |
| 2026-04-20 15:14 | 61.51086 | -58.77216 | 34685 ft | 610 kts | 8° |
| 2026-04-20 15:14 | 61.59429 | -58.74125 | 34688 ft | 609 kts | 8° |
| 2026-04-20 15:15 | 61.67782 | -58.71016 | 34693 ft | 609 kts | 8° |
| 2026-04-20 15:15 | 61.76056 | -58.67917 | 34705 ft | 609 kts | 8° |
| 2026-04-20 15:16 | 61.84404 | -58.64773 | 34702 ft | 608 kts | 8° |
| 2026-04-20 15:16 | 61.92728 | -58.61622 | 34712 ft | 608 kts | 8° |
| 2026-04-20 15:17 | 61.99671 | -58.58979 | 34722 ft | 608 kts | 8° |
| 2026-04-20 15:17 | 62.07989 | -58.55797 | 34718 ft | 608 kts | 8° |
| 2026-04-20 15:18 | 62.16334 | -58.52588 | 34727 ft | 608 kts | 8° |
| 2026-04-20 15:18 | 62.24659 | -58.49366 | 34739 ft | 608 kts | 8° |
| 2026-04-20 15:19 | 62.32985 | -58.46130 | 34735 ft | 608 kts | 8° |
| 2026-04-20 15:19 | 62.41324 | -58.42867 | 34745 ft | 609 kts | 8° |
| 2026-04-20 15:20 | 62.49652 | -58.39591 | 34756 ft | 609 kts | 8° |
| 2026-04-20 15:20 | 62.58007 | -58.36285 | 34752 ft | 609 kts | 8° |
| 2026-04-20 15:21 | 62.66334 | -58.32973 | 34763 ft | 609 kts | 8° |
| 2026-04-20 15:21 | 62.74673 | -58.29635 | 34768 ft | 610 kts | 8° |
| 2026-04-20 15:22 | 62.82978 | -58.26291 | 34767 ft | 610 kts | 8° |
| 2026-04-20 15:22 | 62.91343 | -58.22904 | 34780 ft | 610 kts | 8° |
| 2026-04-20 15:23 | 62.99710 | -58.19499 | 34783 ft | 610 kts | 8° |
| 2026-04-20 15:23 | 63.08009 | -58.16101 | 34789 ft | 610 kts | 8° |
| 2026-04-20 15:24 | 63.16366 | -58.12658 | 34791 ft | 610 kts | 8° |
| 2026-04-20 15:24 | 63.24700 | -58.09204 | 34794 ft | 611 kts | 8° |
| 2026-04-20 15:25 | 63.33064 | -58.05717 | 34805 ft | 611 kts | 8° |
| 2026-04-20 15:25 | 63.41415 | -58.02180 | 34794 ft | 611 kts | 11° |
| 2026-04-20 15:25 | 63.45477 | -57.99327 | 34788 ft | 613 kts | 23° |
| 2026-04-20 15:26 | 63.49310 | -57.94920 | 34797 ft | 615 kts | 34° |
| 2026-04-20 15:26 | 63.52730 | -57.89171 | 34810 ft | 616 kts | 46° |
| 2026-04-20 15:26 | 63.55617 | -57.82362 | 34819 ft | 613 kts | 57° |
| 2026-04-20 15:26 | 63.57998 | -57.74445 | 34811 ft | 605 kts | 69° |
| 2026-04-20 15:27 | 63.59726 | -57.65917 | 34619 ft | 593 kts | 79° |
| 2026-04-20 15:27 | 63.60760 | -57.57044 | 34384 ft | 580 kts | 90° |
| 2026-04-20 15:27 | 63.61290 | -57.48222 | 34657 ft | 565 kts | 94° |
| 2026-04-20 15:27 | 63.61700 | -57.39499 | 34010 ft | 556 kts | 95° |
| 2026-04-20 15:28 | 63.62061 | -57.30839 | 32922 ft | 554 kts | 95° |
| 2026-04-20 15:28 | 63.62415 | -57.22344 | 32616 ft | 539 kts | 95° |
| 2026-04-20 15:28 | 63.62764 | -57.14054 | 32720 ft | 529 kts | 95° |
| 2026-04-20 15:29 | 63.63454 | -56.97614 | 32835 ft | 527 kts | 95° |
| 2026-04-20 15:29 | 63.64164 | -56.81171 | 32849 ft | 527 kts | 94° |
| 2026-04-20 15:30 | 63.64853 | -56.64811 | 32861 ft | 526 kts | 92° |
| 2026-04-20 15:30 | 63.66597 | -56.48693 | 32870 ft | 535 kts | 80° |
| 2026-04-20 15:31 | 63.68810 | -56.32661 | 32881 ft | 534 kts | 83° |
| 2026-04-20 15:31 | 63.70775 | -56.16531 | 32910 ft | 534 kts | 83° |
| 2026-04-20 15:32 | 63.72761 | -56.00372 | 32926 ft | 536 kts | 83° |
| 2026-04-20 15:32 | 63.74753 | -55.84093 | 32203 ft | 538 kts | 83° |
| 2026-04-20 15:32 | 63.75736 | -55.75980 | 31555 ft | 534 kts | 83° |
| 2026-04-20 15:33 | 63.76693 | -55.68049 | 30942 ft | 527 kts | 83° |
| 2026-04-20 15:33 | 63.77646 | -55.60111 | 30419 ft | 517 kts | 83° |
| 2026-04-20 15:33 | 63.78573 | -55.52308 | 29996 ft | 516 kts | 83° |
| 2026-04-20 15:33 | 63.79496 | -55.44489 | 29512 ft | 512 kts | 83° |
| 2026-04-20 15:34 | 63.80414 | -55.36708 | 28995 ft | 506 kts | 83° |
| 2026-04-20 15:34 | 63.81317 | -55.29012 | 28574 ft | 502 kts | 83° |
| 2026-04-20 15:34 | 63.82200 | -55.21441 | 28127 ft | 497 kts | 83° |
| 2026-04-20 15:34 | 63.83077 | -55.13889 | 27607 ft | 492 kts | 83° |
| 2026-04-20 15:35 | 63.83941 | -55.06410 | 27193 ft | 487 kts | 83° |
| 2026-04-20 15:35 | 63.84784 | -54.99063 | 26782 ft | 482 kts | 83° |
| 2026-04-20 15:35 | 63.85625 | -54.91704 | 26266 ft | 477 kts | 83° |
| 2026-04-20 15:35 | 63.86448 | -54.84471 | 25848 ft | 472 kts | 83° |
| 2026-04-20 15:36 | 63.87261 | -54.77292 | 25461 ft | 467 kts | 84° |
| 2026-04-20 15:36 | 63.88058 | -54.70206 | 24991 ft | 462 kts | 84° |
| 2026-04-20 15:36 | 63.88839 | -54.63249 | 24553 ft | 456 kts | 84° |
| 2026-04-20 15:36 | 63.89622 | -54.56224 | 24182 ft | 451 kts | 84° |
| 2026-04-20 15:37 | 63.90385 | -54.49347 | 23731 ft | 447 kts | 84° |
| 2026-04-20 15:37 | 63.91136 | -54.42543 | 23321 ft | 443 kts | 84° |
| 2026-04-20 15:37 | 63.91881 | -54.35752 | 22955 ft | 441 kts | 84° |
| 2026-04-20 15:37 | 63.92616 | -54.29035 | 22482 ft | 438 kts | 84° |
| 2026-04-20 15:38 | 63.93346 | -54.22332 | 22119 ft | 435 kts | 84° |
| 2026-04-20 15:38 | 63.94065 | -54.15687 | 21735 ft | 434 kts | 84° |
| 2026-04-20 15:38 | 63.94784 | -54.09027 | 21276 ft | 431 kts | 84° |
| 2026-04-20 15:38 | 63.95500 | -54.02435 | 20923 ft | 431 kts | 83° |
| 2026-04-20 15:39 | 63.96521 | -53.96009 | 20416 ft | 430 kts | 75° |
| 2026-04-20 15:39 | 63.97701 | -53.89751 | 19937 ft | 430 kts | 74° |
| 2026-04-20 15:39 | 63.98940 | -53.83544 | 19592 ft | 431 kts | 72° |
| 2026-04-20 15:39 | 64.00262 | -53.77400 | 19156 ft | 431 kts | 71° |
| 2026-04-20 15:40 | 64.01616 | -53.71314 | 18738 ft | 431 kts | 70° |
| 2026-04-20 15:40 | 64.02967 | -53.65230 | 18374 ft | 430 kts | 70° |
| 2026-04-20 15:40 | 64.04307 | -53.59131 | 17896 ft | 428 kts | 71° |
| 2026-04-20 15:40 | 64.05594 | -53.53230 | 17569 ft | 425 kts | 71° |
| 2026-04-20 15:41 | 64.06926 | -53.47100 | 17113 ft | 422 kts | 71° |
| 2026-04-20 15:41 | 64.08235 | -53.41071 | 16730 ft | 419 kts | 71° |
| 2026-04-20 15:41 | 64.09529 | -53.35086 | 16349 ft | 416 kts | 71° |
| 2026-04-20 15:41 | 64.10789 | -53.29247 | 15907 ft | 414 kts | 71° |
| 2026-04-20 15:42 | 64.12055 | -53.23359 | 15583 ft | 411 kts | 71° |
| 2026-04-20 15:42 | 64.13318 | -53.17472 | 15134 ft | 408 kts | 71° |
| 2026-04-20 15:42 | 64.14573 | -53.11610 | 14778 ft | 406 kts | 71° |
| 2026-04-20 15:42 | 64.15804 | -53.05837 | 14401 ft | 403 kts | 71° |
| 2026-04-20 15:43 | 64.17021 | -53.00119 | 13989 ft | 400 kts | 71° |
| 2026-04-20 15:43 | 64.18244 | -52.94355 | 13657 ft | 398 kts | 71° |
| 2026-04-20 15:43 | 64.19453 | -52.88653 | 13220 ft | 388 kts | 71° |
| 2026-04-20 15:43 | 64.20599 | -52.83240 | 12910 ft | 384 kts | 72° |
| 2026-04-20 15:44 | 64.21753 | -52.77745 | 12516 ft | 374 kts | 72° |
| 2026-04-20 15:44 | 64.22872 | -52.72449 | 12174 ft | 354 kts | 72° |
| 2026-04-20 15:44 | 64.23919 | -52.67469 | 11868 ft | 337 kts | 73° |
| 2026-04-20 15:44 | 64.24899 | -52.62768 | 11507 ft | 329 kts | 73° |
| 2026-04-20 15:45 | 64.25891 | -52.57997 | 11250 ft | 320 kts | 73° |
| 2026-04-20 15:45 | 64.26830 | -52.53472 | 10910 ft | 315 kts | 74° |
| 2026-04-20 15:45 | 64.27763 | -52.48971 | 10633 ft | 308 kts | 74° |
| 2026-04-20 15:45 | 64.28680 | -52.44540 | 10360 ft | 306 kts | 75° |
| 2026-04-20 15:46 | 64.29591 | -52.40120 | 10031 ft | 304 kts | 75° |
| 2026-04-20 15:46 | 64.30493 | -52.35742 | 9792 ft | 302 kts | 75° |
| 2026-04-20 15:46 | 64.31402 | -52.31334 | 9455 ft | 300 kts | 76° |
| 2026-04-20 15:46 | 64.32287 | -52.27028 | 9193 ft | 296 kts | 76° |
| 2026-04-20 15:47 | 64.33167 | -52.22732 | 8932 ft | 295 kts | 77° |
| 2026-04-20 15:47 | 64.34036 | -52.18495 | 8663 ft | 288 kts | 77° |
| 2026-04-20 15:47 | 64.34874 | -52.14405 | 8418 ft | 282 kts | 78° |
| 2026-04-20 15:47 | 64.35701 | -52.10339 | 8101 ft | 279 kts | 79° |
| 2026-04-20 15:48 | 64.36515 | -52.06349 | 7892 ft | 270 kts | 79° |
| 2026-04-20 15:48 | 64.37305 | -52.02471 | 7608 ft | 262 kts | 81° |
| 2026-04-20 15:48 | 64.38070 | -51.98692 | 7370 ft | 257 kts | 81° |
| 2026-04-20 15:48 | 64.38814 | -51.95000 | 7145 ft | 255 kts | 82° |
| 2026-04-20 15:49 | 64.39560 | -51.91278 | 6865 ft | 254 kts | 82° |
| 2026-04-20 15:49 | 64.40296 | -51.87642 | 6675 ft | 248 kts | 82° |
| 2026-04-20 15:49 | 64.41024 | -51.84014 | 6383 ft | 248 kts | 82° |
| 2026-04-20 15:49 | 64.41740 | -51.80450 | 6196 ft | 242 kts | 83° |
| 2026-04-20 15:50 | 64.42449 | -51.76918 | 5950 ft | 241 kts | 83° |
| 2026-04-20 15:50 | 64.43149 | -51.73401 | 5713 ft | 238 kts | 83° |
| 2026-04-20 15:50 | 64.43831 | -51.69995 | 5547 ft | 228 kts | 84° |
| 2026-04-20 15:50 | 64.44020 | -51.66754 | 5204 ft | 196 kts | 119° |
| 2026-04-20 15:51 | 64.43481 | -51.63926 | 5170 ft | 182 kts | 126° |
| 2026-04-20 15:51 | 64.43032 | -51.61370 | 5016 ft | 162 kts | 127° |
| 2026-04-20 15:51 | 64.42622 | -51.59036 | 4823 ft | 157 kts | 127° |
| 2026-04-20 15:51 | 64.42217 | -51.56696 | 4738 ft | 155 kts | 127° |
| 2026-04-20 15:52 | 64.41820 | -51.54378 | 4573 ft | 155 kts | 126° |
| 2026-04-20 15:52 | 64.41267 | -51.52326 | 4315 ft | 145 kts | 152° |
| 2026-04-20 15:52 | 64.40324 | -51.52217 | 4176 ft | 142 kts | 191° |
| 2026-04-20 15:53 | 64.38490 | -51.53641 | 4003 ft | 136 kts | 188° |
| 2026-04-20 15:53 | 64.37596 | -51.54306 | 3861 ft | 134 kts | 188° |
| 2026-04-20 15:53 | 64.36759 | -51.54935 | 3688 ft | 122 kts | 187° |
| 2026-04-20 15:53 | 64.35981 | -51.55519 | 3511 ft | 113 kts | 186° |
| 2026-04-20 15:54 | 64.35239 | -51.56068 | 3374 ft | 109 kts | 186° |
| 2026-04-20 15:54 | 64.34536 | -51.56587 | 3243 ft | 107 kts | 186° |
| 2026-04-20 15:54 | 64.33831 | -51.57107 | 3104 ft | 106 kts | 186° |
| 2026-04-20 15:54 | 64.33122 | -51.57628 | 2964 ft | 106 kts | 186° |
| 2026-04-20 15:55 | 64.32430 | -51.58137 | 2832 ft | 105 kts | 186° |
| 2026-04-20 15:55 | 64.31725 | -51.58655 | 2693 ft | 105 kts | 186° |
| 2026-04-20 15:55 | 64.31034 | -51.59162 | 2555 ft | 105 kts | 186° |
| 2026-04-20 15:55 | 64.30339 | -51.59673 | 2416 ft | 105 kts | 186° |
| 2026-04-20 15:56 | 64.29639 | -51.60188 | 2278 ft | 105 kts | 186° |
| 2026-04-20 15:56 | 64.28942 | -51.60699 | 2138 ft | 105 kts | 187° |
| 2026-04-20 15:56 | 64.28242 | -51.61215 | 2001 ft | 105 kts | 187° |
| 2026-04-20 15:56 | 64.27545 | -51.61727 | 1863 ft | 106 kts | 187° |
| 2026-04-20 15:57 | 64.26845 | -51.62242 | 1727 ft | 106 kts | 187° |
| 2026-04-20 15:57 | 64.26367 | -51.62594 | 1631 ft | 106 kts | 187° |
| 2026-04-20 15:57 | 64.25437 | -51.63272 | 1443 ft | 106 kts | 191° |
| 2026-04-20 15:57 | 64.24718 | -51.63766 | 1283 ft | 108 kts | 192° |
| 2026-04-20 15:58 | 64.24006 | -51.64353 | 1139 ft | 112 kts | 193° |
| 2026-04-20 15:58 | 64.23274 | -51.65039 | 1020 ft | 111 kts | 193° |
| 2026-04-20 15:58 | 64.22530 | -51.65607 | 898 ft | 117 kts | 191° |
| 2026-04-20 15:58 | 64.21760 | -51.66116 | 757 ft | 119 kts | 189° |
| 2026-04-20 15:59 | 64.20981 | -51.66575 | 568 ft | 113 kts | 188° |
| 2026-04-20 15:59 | 64.20488 | -51.66926 | 437 ft | 109 kts | 191° |
| 2026-04-20 15:59 | 64.19794 | -51.67421 | 296 ft | 100 kts | 194° |
| 2026-04-20 15:59 | 64.19342 | -51.67751 | 291 ft | 30 kts | 194° |
| 2026-04-20 16:00 | 64.19104 | -51.67919 | 291 ft | 28 kts | 195° |
| 2026-04-20 16:00 | 64.18977 | -51.68011 | 291 ft | 28 kts | 197° |
| 2026-04-20 16:00 | 64.18777 | -51.68150 | 291 ft | 20 kts | 195° |
| 2026-04-20 16:00 | 64.18707 | -51.68197 | 291 ft | 12 kts | 194° |
| 2026-04-20 16:01 | 64.18660 | -51.68184 | 291 ft | 2 kts | 141° |
| 2026-04-20 16:01 | 64.18633 | -51.68053 | 291 ft | 11 kts | 114° |
| 2026-04-20 16:01 | 64.18618 | -51.67959 | 291 ft | 8 kts | 105° |
| 2026-04-20 16:01 | 64.18605 | -51.67855 | 291 ft | 5 kts | 108° |
| 2026-04-20 16:02 | 64.18585 | -51.67800 | 291 ft | 5 kts | 141° |
| 2026-04-20 16:02 | 64.18567 | -51.67771 | 291 ft | 2 kts | 148° |
| 2026-04-20 16:02 | 64.18558 | -51.67759 | 291 ft | 2 kts | 150° |
| 2026-04-20 16:02 | 64.18553 | -51.67753 | 291 ft | 0 kts | 150° |